createdAt,value
2018-02-05T00:01:47.282Z,13.77
2018-02-05T00:04:15.806Z,13.73
2018-02-05T00:06:44.088Z,13.15
2018-02-05T00:09:12.489Z,13.70
2018-02-05T00:11:40.756Z,12.65
2018-02-05T00:14:09.083Z,12.45
2018-02-05T00:16:37.579Z,14.30
2018-02-05T00:19:05.866Z,12.05
2018-02-05T00:21:34.288Z,12.10
2018-02-05T00:24:02.424Z,13.30
2018-02-05T00:26:30.568Z,12.43
2018-02-05T00:28:58.860Z,13.85
2018-02-05T00:31:27.162Z,12.55
2018-02-05T00:33:55.973Z,12.07
2018-02-05T00:36:24.257Z,10.35
2018-02-05T00:38:52.381Z,10.18
2018-02-05T00:41:20.481Z,10.23
2018-02-05T00:43:48.744Z,10.82
2018-02-05T00:46:17.140Z,10.35
2018-02-05T00:48:45.322Z,9.27
2018-02-05T00:51:13.779Z,9.82
2018-02-05T00:53:43.363Z,7.93
2018-02-05T00:56:11.754Z,7.50
2018-02-05T00:58:39.980Z,6.32
2018-02-05T01:01:08.343Z,6.32
2018-02-05T01:03:36.374Z,6.07
2018-02-05T01:06:04.536Z,6.93
2018-02-05T01:08:32.724Z,7.28
2018-02-05T01:11:00.924Z,6.35
2018-02-05T01:13:29.004Z,6.85
2018-02-05T01:15:57.217Z,5.57
2018-02-05T01:18:25.230Z,5.90
2018-02-05T01:20:53.507Z,6.28
2018-02-05T01:23:21.482Z,8.10
2018-02-05T01:25:49.775Z,7.70
2018-02-05T01:28:18.280Z,7.10
2018-02-05T01:30:46.657Z,7.00
2018-02-05T01:33:14.974Z,8.70
2018-02-05T01:35:43.281Z,9.35
2018-02-05T01:38:11.464Z,9.57
2018-02-05T01:40:40.088Z,9.93
2018-02-05T01:43:08.277Z,9.63
2018-02-05T01:45:36.454Z,11.20
2018-02-05T01:48:05.276Z,9.48
2018-02-05T01:50:33.465Z,8.00
2018-02-05T01:53:01.565Z,8.77
2018-02-05T01:55:29.739Z,9.23
2018-02-05T01:57:57.839Z,9.98
2018-02-05T02:00:26.039Z,9.05
2018-02-05T02:02:54.282Z,11.12
2018-02-05T02:05:22.617Z,10.55
2018-02-05T02:07:50.915Z,8.93
2018-02-05T02:10:19.247Z,9.27
2018-02-05T02:12:48.035Z,10.02
2018-02-05T02:15:16.622Z,10.50
2018-02-05T02:17:45.864Z,10.10
2018-02-05T02:20:14.137Z,10.52
2018-02-05T02:22:42.441Z,11.57
2018-02-05T02:25:10.655Z,9.52
2018-02-05T02:27:38.768Z,11.85
2018-02-05T02:30:07.087Z,10.85
2018-02-05T02:32:35.423Z,10.60
2018-02-05T02:35:03.535Z,10.18
2018-02-05T02:37:31.625Z,8.18
2018-02-05T02:39:59.802Z,7.30
2018-02-05T02:42:27.856Z,6.87
2018-02-05T02:44:56.081Z,6.62
2018-02-05T02:47:24.195Z,7.00
2018-02-05T02:49:52.477Z,7.90
2018-02-05T02:52:20.985Z,7.20
2018-02-05T02:54:49.277Z,6.35
2018-02-05T02:57:17.678Z,6.25
2018-02-05T02:59:46.003Z,6.78
2018-02-05T03:02:14.260Z,6.57
2018-02-05T03:04:42.559Z,6.53
2018-02-05T03:07:10.877Z,7.55
2018-02-05T03:09:38.990Z,7.30
2018-02-05T03:12:07.154Z,8.25
2018-02-05T03:14:35.475Z,7.00
2018-02-05T03:17:03.624Z,6.50
2018-02-05T03:19:31.735Z,6.82
2018-02-05T03:21:59.916Z,5.93
2018-02-05T03:24:28.115Z,7.35
2018-02-05T03:26:56.317Z,6.40
2018-02-05T03:29:24.625Z,6.20
2018-02-05T03:31:53.103Z,4.62
2018-02-05T03:34:21.400Z,4.80
2018-02-05T03:36:49.707Z,5.25
2018-02-05T03:39:17.944Z,5.00
2018-02-05T03:41:46.297Z,4.00
2018-02-05T03:44:14.566Z,5.15
2018-02-05T03:46:43.515Z,5.22
2018-02-05T03:49:11.784Z,4.60
2018-02-05T03:51:39.994Z,4.50
2018-02-05T03:54:08.283Z,4.43
2018-02-05T03:56:36.563Z,5.00
2018-02-05T03:59:04.685Z,4.60
2018-02-05T04:01:32.874Z,3.83
2018-02-05T04:04:00.844Z,4.10
2018-02-05T04:06:29.056Z,4.95
2018-02-05T04:08:57.061Z,4.70
2018-02-05T04:11:25.442Z,4.95
2018-02-05T04:13:53.843Z,4.75
2018-02-05T04:16:22.078Z,4.43
2018-02-05T04:18:50.447Z,5.22
2018-02-05T04:21:18.741Z,5.32
2018-02-05T04:23:47.048Z,6.22
2018-02-05T04:26:15.181Z,6.25
2018-02-05T04:28:43.539Z,6.22
2018-02-05T04:31:11.724Z,9.85
2018-02-05T04:33:39.908Z,9.10
2018-02-05T04:36:08.079Z,9.50
2018-02-05T04:38:36.096Z,9.30
2018-02-05T04:41:04.321Z,9.93
2018-02-05T04:43:32.601Z,9.95
2018-02-05T04:46:00.796Z,9.38
2018-02-05T04:48:28.910Z,9.35
2018-02-05T04:50:57.074Z,11.27
2018-02-05T04:53:25.364Z,14.98
2018-02-05T04:55:53.781Z,11.85
2018-02-05T04:58:22.074Z,13.80
2018-02-05T05:00:50.364Z,13.85
2018-02-05T05:03:18.555Z,12.93
2018-02-05T05:05:46.890Z,12.23
2018-02-05T05:08:15.039Z,12.40
2018-02-05T05:10:43.335Z,14.85
2018-02-05T05:13:11.643Z,14.30
2018-02-05T05:15:39.848Z,11.25
2018-02-05T05:18:08.024Z,12.20
2018-02-05T05:20:36.207Z,12.35
2018-02-05T05:23:04.219Z,13.52
2018-02-05T05:25:32.404Z,12.88
2018-02-05T05:28:00.510Z,14.35
2018-02-05T05:30:28.901Z,13.25
2018-02-05T05:32:57.556Z,12.27
2018-02-05T05:35:25.954Z,11.73
2018-02-05T05:37:54.194Z,12.15
2018-02-05T05:40:22.396Z,12.93
2018-02-05T05:42:50.755Z,13.13
2018-02-05T05:45:18.898Z,12.60
2018-02-05T05:47:47.315Z,12.95
2018-02-05T05:50:15.476Z,11.35
2018-02-05T05:52:43.888Z,12.60
2018-02-05T05:55:12.067Z,12.80
2018-02-05T05:57:40.239Z,14.25
2018-02-05T06:00:08.243Z,12.52
2018-02-05T06:02:36.378Z,13.02
2018-02-05T06:05:04.480Z,13.00
2018-02-05T06:07:32.930Z,11.77
2018-02-05T06:10:01.239Z,12.40
2018-02-05T06:12:29.528Z,12.90
2018-02-05T06:14:57.840Z,15.45
2018-02-05T06:17:26.237Z,14.77
2018-02-05T06:19:54.636Z,13.80
2018-02-05T06:22:23.134Z,11.63
2018-02-05T06:24:52.336Z,9.98
2018-02-05T06:27:20.747Z,9.98
2018-02-05T06:29:48.836Z,7.65
2018-02-05T06:32:16.946Z,8.65
2018-02-05T06:34:45.197Z,8.90
2018-02-05T06:37:13.421Z,8.68
2018-02-05T06:39:41.517Z,9.88
2018-02-05T06:42:09.661Z,9.07
2018-02-05T06:44:37.701Z,9.82
2018-02-05T06:47:06.002Z,11.57
2018-02-05T06:49:34.279Z,9.93
2018-02-05T06:52:02.782Z,10.68
2018-02-05T06:54:31.286Z,10.75
2018-02-05T06:56:59.576Z,9.52
2018-02-05T06:59:28.300Z,7.65
2018-02-05T07:01:56.597Z,7.20
2018-02-05T07:04:24.891Z,7.62
2018-02-05T07:06:52.945Z,7.68
2018-02-05T07:09:21.163Z,8.35
2018-02-05T07:11:49.381Z,7.72
2018-02-05T07:14:17.449Z,6.75
2018-02-05T07:16:45.677Z,5.95
2018-02-05T07:19:14.052Z,6.15
2018-02-05T07:21:42.317Z,7.35
2018-02-05T07:24:10.542Z,7.90
2018-02-05T07:26:38.942Z,7.28
2018-02-05T07:29:07.236Z,7.37
2018-02-05T07:31:35.541Z,9.30
2018-02-05T07:34:03.675Z,8.77
2018-02-05T07:36:31.816Z,9.05
2018-02-05T07:39:00.109Z,7.35
2018-02-05T07:41:28.429Z,7.30
2018-02-05T07:43:56.853Z,7.03
2018-02-05T07:46:25.321Z,6.45
2018-02-05T07:48:53.514Z,7.43
2018-02-05T07:51:21.913Z,6.50
2018-02-05T07:53:50.212Z,7.68
2018-02-05T07:56:18.406Z,7.85
2018-02-05T07:58:46.685Z,8.18
2018-02-05T08:01:14.760Z,8.70
2018-02-05T08:03:42.982Z,9.30
2018-02-05T08:06:11.181Z,8.93
2018-02-05T08:08:39.235Z,9.93
2018-02-05T08:11:07.476Z,14.32
2018-02-05T08:13:35.665Z,12.68
2018-02-05T08:16:03.953Z,15.85
2018-02-05T08:18:32.262Z,14.57
2018-02-05T08:21:00.552Z,13.93
2018-02-05T08:23:28.949Z,13.62
2018-02-05T08:25:57.148Z,13.13
2018-02-05T08:28:25.311Z,15.23
2018-02-05T08:30:54.040Z,13.95
2018-02-05T08:33:22.239Z,14.23
2018-02-05T08:35:50.635Z,12.40
2018-02-05T08:38:18.781Z,13.57
2018-02-05T08:40:47.850Z,12.88
2018-02-05T08:43:15.941Z,13.05
2018-02-05T08:45:44.050Z,12.70
2018-02-05T08:48:12.527Z,12.40
2018-02-05T08:50:40.717Z,13.32
2018-02-05T08:53:08.922Z,12.27
2018-02-05T08:55:37.214Z,13.38
2018-02-05T08:58:05.607Z,13.18
2018-02-05T09:00:33.808Z,14.10
2018-02-05T09:03:02.111Z,14.15
2018-02-05T09:05:30.191Z,13.27
2018-02-05T09:07:58.391Z,13.62
2018-02-05T09:10:26.470Z,12.65
2018-02-05T09:12:54.669Z,13.75
2018-02-05T09:15:22.873Z,12.35
2018-02-05T09:17:51.059Z,13.68
2018-02-05T09:20:19.262Z,13.40
2018-02-05T09:22:47.463Z,14.40
2018-02-05T09:25:15.407Z,16.80
2018-02-05T09:27:43.642Z,16.42
2018-02-05T09:30:11.723Z,12.40
2018-02-05T09:32:39.922Z,13.62
2018-02-05T09:35:08.016Z,13.23
2018-02-05T09:37:36.214Z,14.10
2018-02-05T09:40:04.389Z,13.52
2018-02-05T09:42:32.709Z,14.10
2018-02-05T09:45:00.804Z,13.43
2018-02-05T09:47:29.197Z,15.93
2018-02-05T09:49:57.386Z,14.27
2018-02-05T09:52:25.580Z,14.18
2018-02-05T09:54:53.783Z,17.90
2018-02-05T09:57:21.964Z,14.10
2018-02-05T09:59:50.056Z,22.45
2018-02-05T10:02:18.261Z,17.27
2018-02-05T10:04:46.440Z,18.85
2018-02-05T10:07:14.552Z,13.95
2018-02-05T10:09:42.642Z,12.35
2018-02-05T10:12:10.835Z,14.50
2018-02-05T10:14:39.127Z,12.70
2018-02-05T10:17:07.421Z,14.95
2018-02-05T10:19:35.715Z,12.43
2018-02-05T10:22:03.797Z,13.32
2018-02-05T10:24:32.101Z,12.65
2018-02-05T10:27:00.189Z,13.82
2018-02-05T10:29:28.403Z,14.10
2018-02-05T10:31:56.494Z,14.43
2018-02-05T10:34:24.788Z,13.82
2018-02-05T10:36:52.988Z,13.45
2018-02-05T10:39:21.378Z,12.82
2018-02-05T10:41:49.580Z,12.55
2018-02-05T10:44:17.780Z,13.85
2018-02-05T10:46:45.960Z,13.90
2018-02-05T10:49:14.155Z,14.25
2018-02-05T10:51:42.289Z,13.45
2018-02-05T10:54:10.538Z,13.55
2018-02-05T10:56:38.736Z,13.45
2018-02-05T10:59:07.030Z,13.65
2018-02-05T11:01:35.233Z,13.68
2018-02-05T11:04:03.437Z,12.63
2018-02-05T11:06:31.831Z,12.52
2018-02-05T11:09:00.026Z,12.68
2018-02-05T11:11:28.200Z,12.55
2018-02-05T11:13:56.317Z,11.85
2018-02-05T11:16:24.333Z,12.02
2018-02-05T11:18:52.683Z,12.93
2018-02-05T11:21:20.877Z,12.25
2018-02-05T11:23:49.139Z,12.27
2018-02-05T11:26:17.301Z,13.00
2018-02-05T11:28:45.683Z,13.48
2018-02-05T11:31:14.123Z,13.18
2018-02-05T11:33:42.307Z,16.20
2018-02-05T11:36:10.304Z,12.75
2018-02-05T11:38:38.708Z,13.35
2018-02-05T11:41:07.877Z,13.85
2018-02-05T11:43:36.161Z,12.52
2018-02-05T11:46:04.468Z,14.35
2018-02-05T11:48:32.680Z,13.40
2018-02-05T11:51:00.957Z,13.20
2018-02-05T11:53:29.042Z,14.05
2018-02-05T11:55:57.392Z,12.20
2018-02-05T11:58:25.533Z,13.23
2018-02-05T12:00:53.954Z,16.98
2018-02-05T12:03:22.137Z,16.23
2018-02-05T12:05:50.440Z,14.68
2018-02-05T12:08:18.620Z,15.68
2018-02-05T12:10:46.820Z,14.05
2018-02-05T12:13:15.020Z,13.98
2018-02-05T12:15:43.148Z,14.75
2018-02-05T12:18:11.320Z,14.25
2018-02-05T12:20:40.631Z,12.40
2018-02-05T12:23:08.921Z,14.32
2018-02-05T12:25:37.004Z,14.18
2018-02-05T12:28:05.209Z,15.48
2018-02-05T12:30:33.412Z,13.80
2018-02-05T12:33:01.691Z,13.65
2018-02-05T12:35:29.672Z,14.00
2018-02-05T12:37:58.435Z,14.40
2018-02-05T12:40:26.577Z,15.63
2018-02-05T12:42:54.677Z,15.63
2018-02-05T12:45:22.858Z,13.85
2018-02-05T12:47:51.054Z,13.32
2018-02-05T12:50:19.890Z,13.73
2018-02-05T12:52:48.143Z,12.10
2018-02-05T12:55:16.463Z,13.02
2018-02-05T12:57:44.592Z,12.40
2018-02-05T13:00:13.120Z,13.30
2018-02-05T13:02:41.356Z,13.40
2018-02-05T13:05:09.650Z,13.55
2018-02-05T13:07:37.854Z,15.18
2018-02-05T13:10:06.283Z,13.65
2018-02-05T13:12:34.742Z,13.55
2018-02-05T13:15:03.036Z,12.95
2018-02-05T13:17:31.174Z,13.55
2018-02-05T13:19:59.274Z,13.48
2018-02-05T13:22:27.534Z,13.32
2018-02-05T13:24:55.534Z,13.07
2018-02-05T13:27:23.614Z,13.07
2018-02-05T13:29:51.798Z,13.93
2018-02-05T13:32:19.888Z,15.00
2018-02-05T13:34:48.087Z,13.52
2018-02-05T13:37:16.187Z,13.40
2018-02-05T13:39:44.587Z,14.45
2018-02-05T13:42:12.874Z,14.15
2018-02-05T13:44:41.473Z,13.50
2018-02-05T13:47:09.575Z,13.65
2018-02-05T13:49:37.765Z,13.55
2018-02-05T13:52:06.074Z,11.30
2018-02-05T13:54:34.147Z,12.65
2018-02-05T13:57:02.325Z,13.07
2018-02-05T13:59:30.538Z,12.07
2018-02-05T14:01:58.839Z,12.43
2018-02-05T14:04:27.036Z,13.45
2018-02-05T14:06:55.017Z,12.57
2018-02-05T14:09:23.118Z,13.62
2018-02-05T14:11:51.308Z,12.52
2018-02-05T14:14:19.500Z,14.52
2018-02-05T14:16:47.802Z,12.10
2018-02-05T14:19:16.001Z,12.73
2018-02-05T14:21:44.095Z,12.48
2018-02-05T14:24:12.380Z,12.35
2018-02-05T14:26:40.576Z,12.30
2018-02-05T14:29:08.762Z,13.00
2018-02-05T14:31:36.858Z,11.40
2018-02-05T14:34:05.466Z,11.02
2018-02-05T14:36:33.657Z,11.90
2018-02-05T14:39:01.860Z,10.90
2018-02-05T14:41:31.285Z,12.75
2018-02-05T14:43:59.777Z,11.55
2018-02-05T14:46:27.977Z,11.40
2018-02-05T14:48:56.160Z,12.32
2018-02-05T14:51:24.158Z,13.23
2018-02-05T14:53:52.356Z,13.20
2018-02-05T14:56:20.535Z,11.48
2018-02-05T14:58:48.736Z,10.93
2018-02-05T15:01:16.943Z,10.20
2018-02-05T15:03:45.130Z,9.63
2018-02-05T15:06:13.433Z,9.40
2018-02-05T15:08:41.615Z,10.98
2018-02-05T15:11:09.820Z,10.48
2018-02-05T15:13:38.007Z,9.95
2018-02-05T15:16:06.198Z,11.18
2018-02-05T15:18:34.298Z,12.02
2018-02-05T15:21:02.376Z,11.75
2018-02-05T15:23:30.574Z,12.10
2018-02-05T15:25:58.777Z,11.55
2018-02-05T15:28:26.968Z,13.27
2018-02-05T15:30:55.175Z,13.40
2018-02-05T15:33:23.458Z,12.43
2018-02-05T15:35:51.756Z,11.80
2018-02-05T15:38:20.158Z,12.70
2018-02-05T15:40:48.398Z,12.15
2018-02-05T15:43:16.666Z,12.15
2018-02-05T15:45:44.955Z,11.80
2018-02-05T15:48:13.134Z,10.38
2018-02-05T15:50:41.344Z,11.10
2018-02-05T15:53:09.415Z,12.15
2018-02-05T15:55:37.628Z,10.43
2018-02-05T15:58:05.819Z,10.77
2018-02-05T16:00:34.010Z,12.70
2018-02-05T16:03:02.094Z,12.73
2018-02-05T16:05:30.300Z,12.90
2018-02-05T16:07:58.494Z,12.45
2018-02-05T16:10:26.694Z,11.20
2018-02-05T16:12:54.980Z,12.32
2018-02-05T16:15:23.284Z,10.90
2018-02-05T16:17:51.568Z,11.88
2018-02-05T16:20:19.668Z,11.55
2018-02-05T16:22:47.698Z,12.43
2018-02-05T16:25:16.776Z,11.90
2018-02-05T16:27:44.957Z,9.77
2018-02-05T16:30:13.157Z,8.93
2018-02-05T16:32:41.357Z,9.32
2018-02-05T16:35:09.437Z,10.48
2018-02-05T16:37:37.637Z,10.45
2018-02-05T16:40:05.748Z,10.35
2018-02-05T16:42:33.916Z,9.30
2018-02-05T16:45:02.012Z,9.10
2018-02-05T16:47:30.209Z,9.23
2018-02-05T16:49:58.524Z,9.15
2018-02-05T16:52:26.915Z,9.60
2018-02-05T16:54:55.239Z,11.18
2018-02-05T16:57:23.395Z,10.57
2018-02-05T16:59:51.592Z,11.75
2018-02-05T17:02:19.892Z,10.88
2018-02-05T17:04:48.796Z,10.27
2018-02-05T17:07:17.291Z,11.40
2018-02-05T17:09:45.396Z,10.18
2018-02-05T17:12:13.695Z,9.13
2018-02-05T17:14:41.893Z,8.45
2018-02-05T17:17:10.075Z,8.90
2018-02-05T17:19:38.175Z,9.70
2018-02-05T17:22:06.376Z,9.00
2018-02-05T17:24:34.467Z,10.15
2018-02-05T17:27:02.651Z,9.35
2018-02-05T17:29:30.752Z,9.52
2018-02-05T17:31:58.949Z,10.73
2018-02-05T17:34:27.133Z,11.10
2018-02-05T17:36:55.320Z,10.30
2018-02-05T17:39:23.614Z,12.18
2018-02-05T17:41:51.923Z,19.70
2018-02-05T17:44:20.119Z,20.58
2018-02-05T17:46:48.288Z,16.35
2018-02-05T17:49:16.340Z,11.65
2018-02-05T17:51:44.587Z,9.63
2018-02-05T17:54:12.696Z,10.50
2018-02-05T17:56:40.886Z,9.80
2018-02-05T17:59:08.979Z,11.38
2018-02-05T18:01:37.168Z,11.00
2018-02-05T18:04:05.359Z,10.80
2018-02-05T18:06:33.557Z,11.40
2018-02-05T18:09:01.748Z,12.60
2018-02-05T18:11:30.559Z,12.37
2018-02-05T18:13:58.762Z,12.88
2018-02-05T18:16:27.228Z,12.90
2018-02-05T18:18:55.274Z,13.60
2018-02-05T18:21:23.443Z,14.05
2018-02-05T18:23:51.748Z,13.70
2018-02-05T18:26:19.929Z,12.23
2018-02-05T18:28:48.015Z,11.90
2018-02-05T18:31:16.217Z,12.80
2018-02-05T18:33:44.401Z,13.27
2018-02-05T18:36:12.724Z,12.85
2018-02-05T18:38:40.999Z,13.13
2018-02-05T18:41:09.097Z,12.88
2018-02-05T18:43:37.905Z,13.55
2018-02-05T18:46:06.199Z,12.30
2018-02-05T18:48:34.509Z,15.60
2018-02-05T18:51:02.790Z,15.68
2018-02-05T18:53:31.197Z,16.75
2018-02-05T18:55:59.498Z,15.95
2018-02-05T18:58:27.898Z,13.77
2018-02-05T19:00:56.077Z,15.68
2018-02-05T19:03:24.391Z,16.62
2018-02-05T19:05:52.677Z,15.40
2018-02-05T19:08:20.806Z,14.75
2018-02-05T19:10:48.936Z,15.15
2018-02-05T19:13:17.160Z,14.48
2018-02-05T19:15:45.265Z,13.88
2018-02-05T19:18:13.456Z,14.95
2018-02-05T19:20:41.642Z,14.57
2018-02-05T19:23:09.883Z,14.87
2018-02-05T19:25:38.061Z,14.20
2018-02-05T19:28:06.189Z,15.25
2018-02-05T19:30:34.321Z,15.68
2018-02-05T19:33:02.441Z,15.02
2018-02-05T19:35:30.801Z,15.80
2018-02-05T19:37:59.109Z,16.65
2018-02-05T19:40:27.302Z,16.95
2018-02-05T19:42:55.701Z,15.82
2018-02-05T19:45:23.782Z,16.80
2018-02-05T19:47:51.990Z,16.33
2018-02-05T19:50:20.089Z,13.70
2018-02-05T19:52:48.193Z,13.05
2018-02-05T19:55:16.216Z,13.35
2018-02-05T19:57:44.238Z,14.05
2018-02-05T20:00:12.458Z,13.13
2018-02-05T20:02:40.642Z,14.52
2018-02-05T20:05:08.738Z,16.67
2018-02-05T20:07:37.046Z,12.85
2018-02-05T20:10:05.219Z,13.80
2018-02-05T20:12:33.419Z,13.98
2018-02-05T20:15:01.424Z,14.80
2018-02-05T20:17:29.598Z,14.90
2018-02-05T20:19:57.879Z,14.15
2018-02-05T20:22:26.086Z,15.15
2018-02-05T20:24:54.187Z,15.93
2018-02-05T20:27:22.367Z,14.93
2018-02-05T20:29:50.567Z,13.90
2018-02-05T20:32:18.766Z,14.38
2018-02-05T20:34:46.969Z,14.70
2018-02-05T20:37:15.086Z,16.15
2018-02-05T20:39:43.266Z,16.10
2018-02-05T20:42:11.586Z,15.23
2018-02-05T20:44:39.746Z,16.20
2018-02-05T20:47:07.834Z,14.63
2018-02-05T20:49:36.034Z,17.37
2018-02-05T20:52:04.328Z,15.90
2018-02-05T20:54:32.506Z,16.25
2018-02-05T20:57:00.607Z,16.37
2018-02-05T20:59:28.679Z,16.08
2018-02-05T21:01:56.922Z,14.85
2018-02-05T21:04:24.983Z,14.80
2018-02-05T21:06:53.087Z,13.75
2018-02-05T21:09:21.886Z,16.50
2018-02-05T21:11:50.008Z,15.63
2018-02-05T21:14:18.366Z,16.67
2018-02-05T21:16:46.985Z,16.80
2018-02-05T21:19:15.066Z,15.60
2018-02-05T21:21:42.965Z,16.75
2018-02-05T21:24:11.148Z,16.15
2018-02-05T21:26:39.246Z,15.30
2018-02-05T21:29:07.445Z,15.88
2018-02-05T21:31:35.516Z,16.05
2018-02-05T21:34:03.725Z,15.75
2018-02-05T21:36:31.713Z,16.17
2018-02-05T21:38:59.905Z,14.80
2018-02-05T21:41:27.989Z,15.75
2018-02-05T21:43:56.185Z,13.52
2018-02-05T21:46:24.179Z,16.23
2018-02-05T21:48:52.385Z,17.00
2018-02-05T21:51:20.458Z,16.23
2018-02-05T21:53:48.657Z,15.38
2018-02-05T21:56:16.750Z,16.30
2018-02-05T21:58:44.961Z,15.98
2018-02-05T22:01:13.355Z,14.73
2018-02-05T22:03:41.544Z,15.27
2018-02-05T22:06:09.477Z,13.38
2018-02-05T22:08:37.538Z,16.17
2018-02-05T22:11:05.608Z,14.85
2018-02-05T22:13:33.805Z,14.73
2018-02-05T22:16:01.904Z,15.13
2018-02-05T22:18:30.095Z,14.20
2018-02-05T22:20:58.121Z,16.77
2018-02-05T22:23:26.273Z,15.88
2018-02-05T22:25:54.392Z,15.90
2018-02-05T22:28:22.603Z,15.95
2018-02-05T22:30:50.856Z,16.17
2018-02-05T22:33:19.167Z,16.00
2018-02-05T22:35:47.456Z,15.38
2018-02-05T22:38:15.586Z,15.95
2018-02-05T22:40:43.758Z,14.25
2018-02-05T22:43:11.946Z,15.93
2018-02-05T22:45:40.029Z,14.55
2018-02-05T22:48:08.337Z,14.23
2018-02-05T22:50:36.700Z,15.18
2018-02-05T22:53:05.135Z,15.95
2018-02-05T22:55:33.141Z,15.50
2018-02-05T22:58:01.415Z,15.02
2018-02-05T23:00:29.393Z,16.02
2018-02-05T23:02:57.590Z,15.75
2018-02-05T23:05:25.789Z,15.90
2018-02-05T23:07:53.991Z,16.12
2018-02-05T23:10:22.047Z,14.82
2018-02-05T23:12:50.115Z,16.62
2018-02-05T23:15:18.208Z,17.23
2018-02-05T23:17:46.451Z,16.65
2018-02-05T23:20:14.658Z,15.95
2018-02-05T23:22:42.954Z,16.35
2018-02-05T23:25:11.256Z,16.33
2018-02-05T23:27:39.438Z,15.82
2018-02-05T23:30:07.959Z,17.00
2018-02-05T23:32:36.719Z,17.35
2018-02-05T23:35:04.898Z,18.23
2018-02-05T23:37:33.266Z,18.52
2018-02-05T23:40:01.442Z,16.83
2018-02-05T23:42:29.556Z,16.37
2018-02-05T23:44:57.821Z,15.50
2018-02-05T23:47:26.011Z,16.62
2018-02-05T23:49:54.315Z,17.35
2018-02-05T23:52:22.335Z,16.52
2018-02-05T23:54:50.693Z,17.35
2018-02-05T23:57:18.801Z,17.75
2018-02-05T23:59:47.310Z,14.80
